Albuquerque, NM (87123)

11:16 AM MDT on August 28, 2014 (GMT -0600)
Four Hills #1 @Camino Cerrito (SE ABQ) | Change Station
CLOSE
Current Station
Personal Weather Station
Location: Albuquerque, NM
Elevation: 5797 ft
Nearby Weather Stations

Elev 5797 ft 35.05 °N, 106.49 °W | Updated 3 minutes ago

Clear
Clear
73.0 °F
Feels Like 77 °F
N
6.3
Wind Variable Wind from WNW

Today
High -- | Low -- °F
--% Chance of Precip.
Yesterday
High -- | Low -- °F
Precip. -- in
6:35 AM 7:38 PM
Waxing Crescent, 9% visible
Pressure 30.01 in
Visibility 10.0 miles
Clouds Few 8000 ft
Heat Index 77 °F
Dew Point 48 °F
Humidity 42%
Rainfall 0.00 in
Snow Depth Not available.
UV 8 out of 12
Pollen 8.40 out of 12
Air Quality Not available.
Flu Activity Not available.
METAR KABQ 281652Z 36005KT 10SM FEW080 23/07 A3024 RMK AO2 SLP163 T02280067

More Conditions Fewer Conditions

Pressure 30.01 in
Visibility 10.0 miles
Clouds Few 8000 ft
Heat Index 77 °F
Dew Point 48 °F
Humidity 42%
Rainfall 0.00 in
Snow Depth Not available.
UV 8 out of 12
Pollen 8.40 out of 12
Air Quality Not available.
Flu Activity Not available.
METAR KABQ 281652Z 36005KT 10SM FEW080 23/07 A3024 RMK AO2 SLP163 T02280067

More Conditions Fewer Conditions

10-Day Weather Forecast

Almanac

Astronomy

Aug. 28, 2014 Rise Set
Actual Time 6:35 AM MDT 7:38 PM MDT
Civil Twilight 6:09 AM MDT 8:04 PM MDT
Nautical Twilight 5:38 AM MDT 8:34 PM MDT
Astronomical Twilight 5:06 AM MDT 9:06 PM MDT
Moon 9:22 AM MDT 9:12 PM MDT
Length of Visible Light 13h 54m
Length of Day
13h 02m
Tomorrow will be 2m 5s shorter.
Waxing Crescent, 9% of the Moon is Illuminated
Today
Waxing Crescent
Sep 2
First Quarter
Sep 8
Full
Sep 15
Last Quarter
Sep 24
New

Today's Extremes

State Highs State Lows

Community

WunderPhotos

Upload Photos

1,748,014 photos uploaded!

Nearby

Snow Depth

Station Depth Elevation
Quemazon 2 in 9500 ft
Santa Fe 0 in 11445 ft
Senorita Divide #2 0 in 8600 ft
Wesner Springs 1 in 11120 ft
Gallegos Peak 1 in 9800 ft

Earthquake Activity

City Distance Mag. Time & Date
No recent earthquake activity has been reported nearby.
Minimum magnitude displayed is 2.5.

Coastal Water Temperatures

Place Temperature
No Stations Reporting

Nearby Weather Stations